Latest Weather Observations for Coldstream

IDV60901

Issued at 1:11 pm EST Sunday 30 April 2017 (issued every 10 minutes, with the page automatically refreshed every 10 minutes)

About weather observations | Map of Melbourne area stations | Latest observations for Melbourne area | Other Formats
Station Details ID: 086383 Name: COLDSTREAM Lat: -37.72 Lon: 145.41 Height: 83.0 m
Data from the previous 72 hours. | See also: Recent months at Coldstream
Date/Time
EST
Temp
°C
App
Temp
°C
Dew
Point
°C
Rel
Hum
%
Delta-T
°C
Wind Press
QNH
hPa
Press
MSL
hPa
Rain since
9am
mm
Dir  Spd
km/h
Gust
km/h
Spd
kts
Gust
kts
30/01:00pm 16.0 13.5 9.7 66 3.3 W 13 17 7 9 1021.1 1021.1 0.0
30/12:30pm 15.3 13.4 9.0 66 3.2 WSW 9 13 5 7 1021.5 1021.5 0.0
30/12:00pm 15.1 12.0 8.8 66 3.2 W 15 19 8 10 1022.1 1022.1 0.0
30/11:30am 15.1 12.4 9.0 67 3.1 W 13 20 7 11 1022.6 1022.6 0.0
30/11:00am 15.4 12.7 9.1 66 3.2 WSW 13 19 7 10 1022.7 1022.7 0.0
30/10:30am 15.1 13.2 9.2 68 3.0 W 9 17 5 9 1022.8 1022.8 0.0
30/10:00am 16.1 15.7 9.8 66 3.3 NW 2 7 1 4 1022.8 1022.8 0.0
30/09:30am 14.8 14.3 10.8 77 2.1 NNW 4 9 2 5 1023.1 1023.1 0.0
30/09:00am 14.1 13.0 10.1 77 2.1 W 6 9 3 5 1023.2 1023.2 0.2
30/08:30am 13.5 13.0 12.2 92 0.7 SW 6 9 3 5 1023.2 1023.2 0.2
30/08:00am 12.6 13.3 12.1 97 0.3 CALM 0 0 0 0 1023.0 1023.0 0.0
30/07:30am 12.3 12.8 11.7 96 0.3 CALM 0 0 0 0 1022.9 1022.9 0.0
30/07:00am 12.2 12.7 11.6 96 0.3 CALM 0 0 0 0 1022.7 1022.7 0.0
30/06:30am 12.2 12.6 11.4 95 0.4 CALM 0 0 0 0 1022.6 1022.6 0.0
30/06:00am 12.3 12.8 11.5 95 0.4 CALM 0 0 0 0 1022.5 1022.5 0.0
30/05:30am 12.3 12.7 11.4 94 0.5 CALM 0 0 0 0 1022.5 1022.5 0.0
30/05:00am 12.4 12.9 11.5 94 0.5 CALM 0 0 0 0 1022.6 1022.6 0.0
30/04:30am 12.4 12.1 11.5 94 0.5 WNW 4 7 2 4 1022.6 1022.6 0.0
30/04:00am 12.5 13.0 11.7 95 0.4 CALM 0 6 0 3 1022.7 1022.7 0.0
30/03:30am 12.5 12.0 11.9 96 0.3 W 6 7 3 4 1022.8 1022.8 0.0
30/03:00am 12.6 13.3 12.3 98 0.2 CALM 0 0 0 0 1023.0 1023.0 0.0
30/02:30am 12.7 13.5 12.5 99 0.1 CALM 0 0 0 0 1023.2 1023.2 0.0
30/02:00am 12.5 13.2 12.2 98 0.2 CALM 0 0 0 0 1023.1 1023.1 0.0
30/01:30am 12.6 13.3 12.3 98 0.2 CALM 0 0 0 0 1023.3 1023.3 0.0
30/01:00am 12.6 13.4 12.4 99 0.1 CALM 0 0 0 0 1023.3 1023.3 0.0
30/12:30am 12.5 13.2 12.3 99 0.1 CALM 0 0 0 0 1023.4 1023.4 0.0
30/12:00am 12.4 13.1 12.2 99 0.1 CALM 0 0 0 0 1023.5 1023.5 0.0
 
Date/Time
EST
Temp
°C
App
Temp
°C
Dew
Point
°C
Rel
Hum
%
Delta-T
°C
Wind Press
QNH
hPa
Press
MSL
hPa
Rain since
9am
mm
Dir  Spd
km/h
Gust
km/h
Spd
kts
Gust
kts
29/11:30pm 12.3 13.0 12.1 99 0.1 CALM 0 0 0 0 1023.5 1023.5 0.0
29/11:00pm 12.2 12.8 12.0 99 0.1 CALM 0 0 0 0 1023.4 1023.4 0.0
29/10:30pm 12.0 12.6 11.8 99 0.1 CALM 0 0 0 0 1023.5 1023.5 0.0
29/10:00pm 12.0 12.5 11.7 98 0.2 CALM 0 6 0 3 1023.5 1023.5 0.0
29/09:30pm 12.1 12.7 11.8 98 0.2 CALM 0 0 0 0 1023.6 1023.6 0.0
29/09:00pm 11.8 12.3 11.5 98 0.2 CALM 0 0 0 0 1023.6 1023.6 0.0
29/08:30pm 11.3 10.9 11.0 98 0.2 SW 4 7 2 4 1023.4 1023.4 0.0
29/08:00pm 10.2 10.1 9.3 94 0.4 CALM 0 0 0 0 1023.5 1023.5 0.0
29/07:30pm 10.9 10.9 9.8 93 0.6 CALM 0 0 0 0 1023.4 1023.4 0.0
29/07:00pm 12.0 12.1 10.1 88 1.0 CALM 0 0 0 0 1023.2 1023.2 0.0
29/06:30pm 13.3 12.9 11.0 86 1.2 SSW 4 9 2 5 1023.0 1023.0 0.0
29/06:00pm 14.4 12.8 11.7 84 1.4 WSW 11 15 6 8 1022.8 1022.8 0.0
29/05:30pm 15.0 13.9 12.1 83 1.6 WSW 9 13 5 7 1022.5 1022.5 0.0
29/05:00pm 16.0 15.0 12.4 79 2.0 SW 9 13 5 7 1022.3 1022.3 0.0
29/04:30pm 16.2 14.4 12.2 77 2.2 SW 13 20 7 11 1022.2 1022.2 0.0
29/04:00pm 17.5 15.9 12.8 74 2.6 SW 13 19 7 10 1022.0 1022.0 0.0
29/03:30pm 17.6 15.9 12.5 72 2.8 SW 13 19 7 10 1021.7 1021.7 0.0
29/03:00pm 17.5 15.7 12.2 71 2.9 SW 13 19 7 10 1021.7 1021.7 0.0
29/02:30pm 18.0 15.6 12.5 70 3.1 WSW 17 22 9 12 1021.6 1021.6 0.0
29/02:00pm 18.1 17.0 11.9 67 3.4 SW 9 19 5 10 1021.6 1021.6 0.0
29/01:30pm 17.5 16.9 12.4 72 2.8 SSE 7 11 4 6 1021.7 1021.7 0.0
29/01:00pm 17.8 15.8 12.7 72 2.8 W 15 20 8 11 1022.0 1022.0 0.0
29/12:30pm 17.8 15.4 12.7 72 2.9 W 17 22 9 12 1022.3 1022.3 0.0
29/12:00pm 17.4 16.5 12.7 74 2.6 WSW 9 13 5 7 1022.7 1022.7 0.0
29/11:30am 16.5 16.4 13.2 81 1.9 WSW 6 11 3 6 1022.9 1022.9 0.0
29/11:00am 16.2 15.3 13.7 85 1.4 WSW 11 15 6 8 1023.1 1023.1 0.0
29/10:30am 15.4 14.9 13.9 91 0.8 WNW 9 15 5 8 1023.0 1023.0 0.0
29/10:00am 14.7 14.9 14.2 97 0.3 NW 6 9 3 5 1023.0 1023.0 0.0
29/09:30am 14.0 14.4 13.8 99 0.1 NW 4 7 2 4 1023.0 1023.0 0.0
29/09:00am 13.6 13.5 13.4 99 0.1 NNE 6 9 3 5 1022.8 1022.8 1.2
29/08:30am 13.4 13.1 13.2 99 0.1 NNE 7 9 4 5 1022.7 1022.7 1.2
29/08:00am 13.2 12.4 13.0 99 0.1 NNE 9 19 5 10 1022.5 1022.5 1.2
29/07:30am 13.0 11.8 12.8 99 0.1 N 11 17 6 9 1022.3 1022.3 1.2
29/07:00am 12.9 12.6 12.7 99 0.1 NNE 6 9 3 5 1022.1 1022.1 1.2
29/06:30am 13.0 13.9 12.8 99 0.1 CALM 0 7 0 4 1022.1 1022.1 1.2
29/06:00am 13.0 12.7 12.8 99 0.1 N 6 9 3 5 1022.1 1022.1 1.0
29/05:30am 13.1 14.0 12.8 98 0.2 CALM 0 4 0 2 1022.0 1022.0 0.8
29/05:00am 13.2 13.4 12.9 98 0.2 N 4 9 2 5 1021.7 1021.7 0.6
29/04:30am 13.3 14.3 13.1 99 0.1 CALM 0 0 0 0 1021.7 1021.7 0.4
29/04:00am 13.3 14.3 13.1 99 0.1 CALM 0 0 0 0 1021.7 1021.7 0.4
29/03:30am 13.4 14.4 13.2 99 0.1 CALM 0 7 0 4 1021.7 1021.7 0.4
29/03:00am 13.4 14.4 13.2 99 0.1 CALM 0 0 0 0 1021.8 1021.8 0.4
29/02:30am 13.4 14.4 13.2 99 0.1 CALM 0 0 0 0 1022.0 1022.0 0.4
29/02:00am 13.5 14.5 13.3 99 0.1 CALM 0 0 0 0 1022.2 1022.2 0.4
29/01:30am 13.4 14.4 13.2 99 0.1 CALM 0 6 0 3 1022.4 1022.4 0.4
29/01:00am 13.4 14.4 13.1 98 0.2 CALM 0 0 0 0 1022.4 1022.4 0.4
29/12:30am 13.3 14.2 13.0 98 0.2 CALM 0 0 0 0 1022.4 1022.4 0.4
29/12:00am 13.4 14.3 12.9 97 0.3 CALM 0 0 0 0 1022.5 1022.5 0.4
 
Date/Time
EST
Temp
°C
App
Temp
°C
Dew
Point
°C
Rel
Hum
%
Delta-T
°C
Wind Press
QNH
hPa
Press
MSL
hPa
Rain since
9am
mm
Dir  Spd
km/h
Gust
km/h
Spd
kts
Gust
kts
28/11:30pm 13.4 14.3 12.8 96 0.3 CALM 0 0 0 0 1022.6 1022.6 0.4
28/11:00pm 13.5 14.3 12.7 95 0.4 CALM 0 0 0 0 1022.8 1022.8 0.4
28/10:30pm 13.9 14.1 13.0 94 0.5 SSE 4 7 2 4 1022.8 1022.8 0.0
28/10:00pm 14.0 14.9 12.9 93 0.6 CALM 0 0 0 0 1022.8 1022.8 0.0
28/09:30pm 13.8 14.3 12.7 93 0.6 SW 2 9 1 5 1022.8 1022.8 0.0
28/09:00pm 13.8 14.6 12.5 92 0.7 CALM 0 0 0 0 1022.8 1022.8 0.0
28/08:30pm 13.8 14.5 12.2 90 0.9 CALM 0 6 0 3 1022.8 1022.8 0.0
28/08:00pm 13.5 14.1 11.9 90 0.9 CALM 0 9 0 5 1022.9 1022.9 0.0
28/07:30pm 13.9 13.7 11.9 88 1.1 NNE 4 7 2 4 1022.8 1022.8 0.0
28/07:00pm 14.4 14.7 12.1 86 1.2 NE 2 7 1 4 1022.8 1022.8 0.0
28/06:30pm 14.5 14.4 12.2 86 1.3 NNE 4 9 2 5 1022.6 1022.6 0.0
28/06:00pm 14.8 15.1 12.3 85 1.4 NNE 2 6 1 3 1022.4 1022.4 0.0
28/05:30pm 15.2 14.8 12.3 83 1.6 NNE 6 9 3 5 1022.2 1022.2 0.0
28/05:00pm 15.9 15.4 12.6 81 1.8 NNE 7 11 4 6 1022.1 1022.1 0.0
28/04:30pm 16.4 15.6 12.8 79 2.0 NNE 9 15 5 8 1022.2 1022.2 0.0
28/04:00pm 16.1 14.9 12.7 80 1.9 N 11 15 6 8 1022.2 1022.2 0.0
28/03:30pm 16.6 16.1 12.6 77 2.2 N 7 9 4 5 1022.3 1022.3 0.0
28/03:00pm 16.3 15.8 12.5 78 2.1 NNW 7 11 4 6 1022.4 1022.4 0.0
28/02:30pm 15.9 15.4 12.6 81 1.8 NNW 7 11 4 6 1022.7 1022.7 0.0
28/02:00pm 15.7 14.8 12.5 81 1.8 N 9 13 5 7 1022.6 1022.6 0.0
28/01:30pm 15.2 14.2 12.2 82 1.6 NNE 9 15 5 8 1022.8 1022.8 0.0
28/01:00pm 14.8 14.2 12.3 85 1.4 NNE 7 13 4 7 1023.0 1023.0 0.0
28/12:30pm 14.4 13.8 12.3 87 1.1 NNE 7 11 4 6 1023.5 1023.5 0.0
28/12:00pm 14.6 13.6 12.3 86 1.2 NNE 9 15 5 8 1023.8 1023.8 0.0
28/11:30am 14.9 14.1 11.1 78 2.0 N 6 15 3 8 1023.9 1023.9 0.0
28/11:00am 15.1 13.7 10.9 76 2.2 NNE 9 13 5 7 1024.1 1024.1 0.0
28/10:30am 14.9 14.1 10.9 77 2.1 N 6 7 3 4 1024.3 1024.3 0.0
28/10:00am 14.6 13.5 10.6 77 2.1 NNE 7 11 4 6 1024.4 1024.4 0.0
28/09:30am 13.8 12.8 11.1 84 1.4 NNE 7 11 4 6 1024.4 1024.4 0.0
28/09:00am 13.0 12.2 10.9 87 1.1 N 6 11 3 6 1024.4 1024.4 1.4
28/08:30am 12.4 11.6 11.0 91 0.7 NNE 6 13 3 7 1024.1 1024.1 1.4
28/08:00am 11.8 12.1 10.9 94 0.5 CALM 0 0 0 0 1024.0 1024.0 1.4
28/07:30am 11.3 11.5 10.4 94 0.5 CALM 0 4 0 2 1023.7 1023.7 1.4
28/07:00am 11.1 10.1 10.3 95 0.4 NE 6 7 3 4 1023.6 1023.6 1.4
28/06:30am 11.0 10.3 10.2 95 0.4 ENE 4 7 2 4 1023.3 1023.3 1.4
28/06:00am 10.9 10.7 10.3 96 0.3 NE 2 6 1 3 1023.2 1023.2 1.4
28/05:30am 10.7 10.4 10.2 97 0.3 NE 2 7 1 4 1023.2 1023.2 1.4
28/05:00am 10.6 10.7 10.1 97 0.3 CALM 0 0 0 0 1023.1 1023.1 1.4
28/04:30am 10.5 10.6 10.0 97 0.3 CALM 0 0 0 0 1022.9 1022.9 1.4
28/04:00am 10.4 10.4 9.9 97 0.3 CALM 0 0 0 0 1022.8 1022.8 1.4
28/03:30am 10.4 10.5 10.1 98 0.2 CALM 0 0 0 0 1022.9 1022.9 1.4
28/03:00am 10.2 9.1 10.1 99 0.1 NNE 6 9 3 5 1023.0 1023.0 1.4
28/02:30am 9.9 9.9 9.8 99 0.1 CALM 0 0 0 0 1023.3 1023.3 1.4
28/02:00am 9.7 9.3 9.6 99 0.0 E 2 7 1 4 1023.5 1023.5 1.4
28/01:30am 9.7 9.6 9.6 99 0.1 CALM 0 0 0 0 1023.5 1023.5 1.4
28/01:00am 9.4 9.3 9.3 99 0.0 CALM 0 0 0 0 1023.6 1023.6 1.4
28/12:30am 9.0 8.8 8.9 99 0.0 CALM 0 0 0 0 1023.6 1023.6 1.4
28/12:00am 9.2 9.0 9.1 99 0.0 CALM 0 0 0 0 1023.8 1023.8 1.4
 
Date/Time
EST
Temp
°C
App
Temp
°C
Dew
Point
°C
Rel
Hum
%
Delta-T
°C
Wind Press
QNH
hPa
Press
MSL
hPa
Rain since
9am
mm
Dir  Spd
km/h
Gust
km/h
Spd
kts
Gust
kts
27/11:30pm 9.3 9.1 9.2 99 0.0 CALM 0 0 0 0 1023.7 1023.7 1.4
27/11:00pm 9.4 9.3 9.3 99 0.0 CALM 0 0 0 0 1023.8 1023.8 1.4
27/10:30pm 9.6 9.5 9.3 98 0.1 CALM 0 0 0 0 1023.8 1023.8 1.4
27/10:00pm 9.7 9.6 9.4 98 0.1 CALM 0 0 0 0 1023.8 1023.8 1.4
27/09:30pm 9.8 9.3 9.5 98 0.2 N 2 6 1 3 1023.9 1023.9 1.4
27/09:00pm 9.8 9.7 9.5 98 0.1 CALM 0 0 0 0 1023.6 1023.6 1.4
27/08:30pm 9.9 9.4 9.4 97 0.2 NNE 2 6 1 3 1023.5 1023.5 1.2
27/08:00pm 10.3 10.2 9.5 95 0.4 CALM 0 0 0 0 1023.8 1023.8 1.2
27/07:30pm 10.3 9.5 9.5 95 0.4 WNW 4 7 2 4 1023.8 1023.8 1.2
27/07:00pm 10.4 8.9 9.2 92 0.6 W 7 9 4 5 1023.6 1023.6 1.2
27/06:30pm 10.9 8.4 8.3 84 1.3 SW 11 17 6 9 1023.2 1023.2 1.2
27/06:00pm 11.2 8.3 8.1 81 1.5 SW 13 19 7 10 1022.8 1022.8 1.2
27/05:30pm 11.4 9.3 8.4 82 1.5 SW 9 13 5 7 1022.7 1022.7 1.2
27/05:00pm 11.5 9.0 8.2 80 1.6 SW 11 15 6 8 1022.7 1022.7 1.2
27/04:30pm 11.8 7.3 7.1 73 2.3 SW 20 24 11 13 1022.5 1022.5 1.2
27/04:00pm 12.2 9.4 8.7 79 1.7 W 13 17 7 9 1022.7 1022.7 1.2
27/03:30pm 13.0 10.3 5.7 61 3.4 SW 9 24 5 13 1022.7 1022.7 1.2
27/03:00pm 12.7 11.0 8.2 74 2.2 S 7 13 4 7 1022.6 1022.6 1.2
27/02:30pm 11.9 10.8 10.8 93 0.6 SSE 7 11 4 6 1022.9 1022.9 1.2
27/02:00pm 10.7 9.4 9.3 91 0.7 W 6 11 3 6 1022.6 1022.6 1.2
27/01:30pm 10.9 8.1 8.7 86 1.1 W 13 19 7 10 1022.3 1022.3 0.0

Latest Capital City Observations: Canberra | Sydney | Melbourne | Brisbane | Adelaide | Perth | Hobart | Darwin

Other Formats:

Comma delimited format used in spreadsheet applications
http://www.bom.gov.au/fwo/IDV60901/IDV60901.94864.axf

JavaScript Object Notation format (JSON) in row-major order
http://www.bom.gov.au/fwo/IDV60901/IDV60901.94864.json